Map

Track Data

SID SEASON NUMBER BASIN SUBBASIN NAME ISO_TIME NATURE LAT LON WMO_WIND WMO_PRES WMO_AGENCY TRACK_TYPE DIST2LAND LANDFALL IFLAG USA_AGENCY USA_ATCF_ID USA_LAT USA_LON USA_RECORD USA_STATUS USA_WIND USA_PRES USA_SSHS USA_R34_NE USA_R34_SE USA_R34_SW USA_R34_NW USA_R50_NE USA_R50_SE USA_R50_SW USA_R50_NW USA_R64_NE USA_R64_SE USA_R64_SW USA_R64_NW USA_POCI USA_ROCI USA_RMW USA_EYE TOKYO_LAT TOKYO_LON TOKYO_GRADE TOKYO_WIND TOKYO_PRES TOKYO_R50_DIR TOKYO_R50_LONG TOKYO_R50_SHORT TOKYO_R30_DIR TOKYO_R30_LONG TOKYO_R30_SHORT TOKYO_LAND CMA_LAT CMA_LON CMA_CAT CMA_WIND CMA_PRES HKO_LAT HKO_LON HKO_CAT HKO_WIND HKO_PRES NEWDELHI_LAT NEWDELHI_LON NEWDELHI_GRADE NEWDELHI_WIND NEWDELHI_PRES NEWDELHI_CI NEWDELHI_DP NEWDELHI_POCI REUNION_LAT REUNION_LON REUNION_TYPE REUNION_WIND REUNION_PRES REUNION_TNUM REUNION_CI REUNION_RMW REUNION_R34_NE REUNION_R34_SE REUNION_R34_SW REUNION_R34_NW REUNION_R50_NE REUNION_R50_SE REUNION_R50_SW REUNION_R50_NW REUNION_R64_NE REUNION_R64_SE REUNION_R64_SW REUNION_R64_NW BOM_LAT BOM_LON BOM_TYPE BOM_WIND BOM_PRES BOM_TNUM BOM_CI BOM_RMW BOM_R34_NE BOM_R34_SE BOM_R34_SW BOM_R34_NW BOM_R50_NE BOM_R50_SE BOM_R50_SW BOM_R50_NW BOM_R64_NE BOM_R64_SE BOM_R64_SW BOM_R64_NW BOM_ROCI BOM_POCI BOM_EYE BOM_POS_METHOD BOM_PRES_METHOD NADI_LAT NADI_LON NADI_CAT NADI_WIND NADI_PRES WELLINGTON_LAT WELLINGTON_LON WELLINGTON_WIND WELLINGTON_PRES DS824_LAT DS824_LON DS824_STAGE DS824_WIND DS824_PRES TD9636_LAT TD9636_LON TD9636_STAGE TD9636_WIND TD9636_PRES TD9635_LAT TD9635_LON TD9635_WIND TD9635_PRES TD9635_ROCI NEUMANN_LAT NEUMANN_LON NEUMANN_CLASS NEUMANN_WIND NEUMANN_PRES MLC_LAT MLC_LON MLC_CLASS MLC_WIND MLC_PRES USA_GUST BOM_GUST BOM_GUST_PER REUNION_GUST REUNION_GUST_PER USA_SEAHGT USA_SEARAD_NE USA_SEARAD_SE USA_SEARAD_SW USA_SEARAD_NW STORM_SPEED STORM_DIR
2004185N16241 2004 35 EP MM NOT_NAMED 2004-07-02 12:00:00 TS 16.2000 -119.200 25 1008 hurdat_epa main 1203 1201 O_____________ hurdat_epa EP022004 16.2000 -119.200 TD 25 1008 -1 35 7 300
2004185N16241 2004 35 EP MM NOT_NAMED 2004-07-02 15:00:00 TS 16.3851 -119.535 main 1205 1205 P_____________ EP022004 16.3851 -119.535 TD 25 1008 -1 8 301
2004185N16241 2004 35 EP MM NOT_NAMED 2004-07-02 18:00:00 TS 16.6000 -119.900 25 1008 hurdat_epa main 1215 1212 O_____________ hurdat_epa EP022004 16.6000 -119.900 TD 25 1008 -1 35 9 302
2004185N16241 2004 35 EP MM NOT_NAMED 2004-07-02 21:00:00 TS 16.8574 -120.320 main 1218 1218 P_____________ EP022004 16.8574 -120.320 TD 27 1007 -1 10 300
2004185N16241 2004 35 EP MM NOT_NAMED 2004-07-03 00:00:00 TS 17.1000 -120.800 30 1007 hurdat_epa main 1239 1239 O_____________ hurdat_epa EP022004 17.1000 -120.800 TD 30 1007 -1 35 11 293
2004185N16241 2004 35 EP MM NOT_NAMED 2004-07-03 03:00:00 TS 17.2725 -121.335 main 1262 1262 P_____________ EP022004 17.2725 -121.335 TD 30 1007 -1 11 286
2004185N16241 2004 35 EP MM NOT_NAMED 2004-07-03 06:00:00 TS 17.4000 -121.900 30 1007 hurdat_epa main 1301 1301 O_____________ hurdat_epa EP022004 17.4000 -121.900 TD 30 1007 -1 35 11 283
2004185N16241 2004 35 EP MM NOT_NAMED 2004-07-03 09:00:00 TS 17.5223 -122.450 main 1334 1343 P_____________ EP022004 17.5223 -122.450 TD 30 1007 -1 11 281
2004185N16241 2004 35 EP MM NOT_NAMED 2004-07-03 12:00:00 TS 17.6000 -123.000 30 1007 hurdat_epa main 1377 1377 O_____________ hurdat_epa EP022004 17.6000 -123.000 TD 30 1007 -1 35 11 275
2004185N16241 2004 35 EP MM NOT_NAMED 2004-07-03 15:00:00 TS 17.6225 -123.565 main 1428 1428 P_____________ EP022004 17.6225 -123.565 TD 27 1007 -1 10 270
2004185N16241 2004 35 EP MM NOT_NAMED 2004-07-03 18:00:00 TS 17.6000 -124.100 25 1008 hurdat_epa main 1463 1463 O_____________ hurdat_epa EP022004 17.6000 -124.100 TD 25 1008 -1 35 9 268
2004185N16241 2004 35 EP MM NOT_NAMED 2004-07-03 21:00:00 TS 17.5872 -124.550 main 1490 1490 P_____________ EP022004 17.5872 -124.550 TD 22 1008 -1 9 263
2004185N16241 2004 35 EP MM NOT_NAMED 2004-07-04 00:00:00 DS 17.5000 -125.000 20 1008 hurdat_epa main 1532 1532 O_____________ hurdat_epa EP022004 17.5000 -125.000 LO 20 1008 -3 10 252
2004185N16241 2004 35 EP MM NOT_NAMED 2004-07-04 03:00:00 DS 17.2800 -125.535 main 1583 1583 P_____________ EP022004 17.2800 -125.535 LO 20 1008 -3 12 245
2004185N16241 2004 35 EP MM NOT_NAMED 2004-07-04 06:00:00 DS 17.0000 -126.100 20 1008 hurdat_epa main 1651 1651 O_____________ hurdat_epa EP022004 17.0000 -126.100 LO 20 1008 -3 12 244
2004185N16241 2004 35 EP MM NOT_NAMED 2004-07-04 09:00:00 DS 16.7574 -126.650 main 1703 1703 P_____________ EP022004 16.7574 -126.650 LO 20 1008 -3 12 245
2004185N16241 2004 35 EP MM NOT_NAMED 2004-07-04 12:00:00 DS 16.5000 -127.200 20 1009 hurdat_epa main 1771 1771 O_____________ hurdat_epa EP022004 16.5000 -127.200 LO 20 1009 -3 12 243
2004185N16241 2004 35 EP MM NOT_NAMED 2004-07-04 15:00:00 DS 16.2149 -127.757 main 1839 1839 P_____________ EP022004 16.2149 -127.757 LO 20 1009 -3 12 240
2004185N16241 2004 35 EP MM NOT_NAMED 2004-07-04 18:00:00 DS 15.9000 -128.300 20 1009 hurdat_epa main 1900 1900 O_____________ hurdat_epa EP022004 15.9000 -128.300 LO 20 1009 -3 12 237
2004185N16241 2004 35 EP MM NOT_NAMED 2004-07-04 21:00:00 DS 15.5577 -128.810 main 1962 1962 P_____________ EP022004 15.5577 -128.810 LO 20 1009 -3 12 234
2004185N16241 2004 35 EP MM NOT_NAMED 2004-07-05 00:00:00 DS 15.2000 -129.300 20 1009 hurdat_epa main 2031 O_____________ hurdat_epa EP022004 15.2000 -129.300 LO 20 1009 -3 12 233

About IBTrACS Database

This database is a web-friendly format of International Best Track Archive for Climate Stewardship (IBTrACS), a global best track data archive curated by NOAA dating back to 1842.

Updated: 2021-10-27